sensor_id;sensor_type;location;lat;lon;timestamp;temperature;humidity
46029;DHT22;31763;48.180;7.904;2023-05-10T00:00:55;11.80;99.90
46029;DHT22;31763;48.180;7.904;2023-05-10T00:03:22;11.80;99.90
46029;DHT22;31763;48.180;7.904;2023-05-10T00:05:49;11.80;99.90
46029;DHT22;31763;48.180;7.904;2023-05-10T00:08:16;11.80;99.90
46029;DHT22;31763;48.180;7.904;2023-05-10T00:10:42;11.80;99.90
46029;DHT22;31763;48.180;7.904;2023-05-10T00:13:09;11.80;99.90
46029;DHT22;31763;48.180;7.904;2023-05-10T00:15:36;11.80;99.90
46029;DHT22;31763;48.180;7.904;2023-05-10T00:18:03;11.80;99.90
46029;DHT22;31763;48.180;7.904;2023-05-10T00:20:30;11.70;99.90
46029;DHT22;31763;48.180;7.904;2023-05-10T00:22:57;11.70;99.90
46029;DHT22;31763;48.180;7.904;2023-05-10T00:25:23;11.70;99.90
46029;DHT22;31763;48.180;7.904;2023-05-10T00:27:50;11.60;99.90
46029;DHT22;31763;48.180;7.904;2023-05-10T00:30:17;11.70;99.90
46029;DHT22;31763;48.180;7.904;2023-05-10T00:32:45;11.70;99.90
46029;DHT22;31763;48.180;7.904;2023-05-10T00:35:12;11.60;99.90
46029;DHT22;31763;48.180;7.904;2023-05-10T00:37:39;11.60;99.90
46029;DHT22;31763;48.180;7.904;2023-05-10T00:40:06;11.60;99.90
46029;DHT22;31763;48.180;7.904;2023-05-10T00:42:33;11.60;99.90
46029;DHT22;31763;48.180;7.904;2023-05-10T00:45:00;11.60;99.90
46029;DHT22;31763;48.180;7.904;2023-05-10T00:47:27;11.70;99.90
46029;DHT22;31763;48.180;7.904;2023-05-10T00:49:55;11.60;99.90
46029;DHT22;31763;48.180;7.904;2023-05-10T00:52:22;11.50;99.90
46029;DHT22;31763;48.180;7.904;2023-05-10T00:54:52;11.50;99.90
46029;DHT22;31763;48.180;7.904;2023-05-10T00:57:19;11.50;99.90
46029;DHT22;31763;48.180;7.904;2023-05-10T00:59:46;11.50;99.90
46029;DHT22;31763;48.180;7.904;2023-05-10T01:02:13;11.50;99.90
46029;DHT22;31763;48.180;7.904;2023-05-10T01:04:40;11.50;99.90
46029;DHT22;31763;48.180;7.904;2023-05-10T01:07:07;11.50;99.90
46029;DHT22;31763;48.180;7.904;2023-05-10T01:09:34;11.40;99.90
46029;DHT22;31763;48.180;7.904;2023-05-10T01:12:01;11.40;99.90
46029;DHT22;31763;48.180;7.904;2023-05-10T01:14:30;11.50;99.90
46029;DHT22;31763;48.180;7.904;2023-05-10T01:16:57;11.40;99.90
46029;DHT22;31763;48.180;7.904;2023-05-10T01:19:26;11.40;99.90
46029;DHT22;31763;48.180;7.904;2023-05-10T01:22:14;11.40;99.90
46029;DHT22;31763;48.180;7.904;2023-05-10T01:29:03;11.40;99.90
46029;DHT22;31763;48.180;7.904;2023-05-10T01:32:00;11.40;99.90
46029;DHT22;31763;48.180;7.904;2023-05-10T01:34:55;11.50;99.90
46029;DHT22;31763;48.180;7.904;2023-05-10T01:37:45;11.40;99.90
46029;DHT22;31763;48.180;7.904;2023-05-10T01:40:26;11.40;99.90
46029;DHT22;31763;48.180;7.904;2023-05-10T01:43:08;11.40;99.90
46029;DHT22;31763;48.180;7.904;2023-05-10T01:45:46;11.30;99.90
46029;DHT22;31763;48.180;7.904;2023-05-10T01:48:16;11.30;99.90
46029;DHT22;31763;48.180;7.904;2023-05-10T01:50:46;11.30;99.90
46029;DHT22;31763;48.180;7.904;2023-05-10T01:53:16;11.30;99.90
46029;DHT22;31763;48.180;7.904;2023-05-10T01:55:48;11.30;99.90
46029;DHT22;31763;48.180;7.904;2023-05-10T01:58:23;11.30;99.90
46029;DHT22;31763;48.180;7.904;2023-05-10T02:00:54;11.30;99.90
46029;DHT22;31763;48.180;7.904;2023-05-10T02:03:23;11.30;99.90
46029;DHT22;31763;48.180;7.904;2023-05-10T02:05:52;11.30;99.90
46029;DHT22;31763;48.180;7.904;2023-05-10T02:08:21;11.30;99.90
46029;DHT22;31763;48.180;7.904;2023-05-10T02:10:51;11.30;99.90
46029;DHT22;31763;48.180;7.904;2023-05-10T02:13:19;11.30;99.90
46029;DHT22;31763;48.180;7.904;2023-05-10T02:15:50;11.30;99.90
46029;DHT22;31763;48.180;7.904;2023-05-10T02:18:17;11.30;99.90
46029;DHT22;31763;48.180;7.904;2023-05-10T02:20:46;11.30;99.90
46029;DHT22;31763;48.180;7.904;2023-05-10T02:23:14;11.30;99.90
46029;DHT22;31763;48.180;7.904;2023-05-10T02:25:43;11.30;99.90
46029;DHT22;31763;48.180;7.904;2023-05-10T02:28:12;11.30;99.90
46029;DHT22;31763;48.180;7.904;2023-05-10T02:30:41;11.30;99.90
46029;DHT22;31763;48.180;7.904;2023-05-10T02:33:08;11.30;99.90
46029;DHT22;31763;48.180;7.904;2023-05-10T02:35:36;11.30;99.90
46029;DHT22;31763;48.180;7.904;2023-05-10T02:38:06;11.30;99.90
46029;DHT22;31763;48.180;7.904;2023-05-10T02:40:35;11.30;99.90
46029;DHT22;31763;48.180;7.904;2023-05-10T02:43:04;11.30;99.90
46029;DHT22;31763;48.180;7.904;2023-05-10T02:45:35;11.30;99.90
46029;DHT22;31763;48.180;7.904;2023-05-10T02:48:03;11.30;99.90
46029;DHT22;31763;48.180;7.904;2023-05-10T02:50:32;11.30;99.90
46029;DHT22;31763;48.180;7.904;2023-05-10T02:53:01;11.20;99.90
46029;DHT22;31763;48.180;7.904;2023-05-10T02:55:38;11.20;99.90
46029;DHT22;31763;48.180;7.904;2023-05-10T02:58:36;11.30;99.90
46029;DHT22;31763;48.180;7.904;2023-05-10T03:01:03;11.20;99.90
46029;DHT22;31763;48.180;7.904;2023-05-10T03:03:30;11.30;99.90
46029;DHT22;31763;48.180;7.904;2023-05-10T03:05:57;11.20;99.90
46029;DHT22;31763;48.180;7.904;2023-05-10T03:08:25;11.20;99.90
46029;DHT22;31763;48.180;7.904;2023-05-10T03:20:10;11.20;99.90
46029;DHT22;31763;48.180;7.904;2023-05-10T03:22:42;11.20;99.90
46029;DHT22;31763;48.180;7.904;2023-05-10T03:25:12;11.20;99.90
46029;DHT22;31763;48.180;7.904;2023-05-10T03:27:43;11.20;99.90
46029;DHT22;31763;48.180;7.904;2023-05-10T03:30:12;11.20;99.90
46029;DHT22;31763;48.180;7.904;2023-05-10T03:32:39;11.20;99.90
46029;DHT22;31763;48.180;7.904;2023-05-10T03:35:10;11.20;99.90
46029;DHT22;31763;48.180;7.904;2023-05-10T03:37:39;11.20;99.90
46029;DHT22;31763;48.180;7.904;2023-05-10T03:40:06;11.20;99.90
46029;DHT22;31763;48.180;7.904;2023-05-10T03:42:34;11.20;99.90
46029;DHT22;31763;48.180;7.904;2023-05-10T03:45:01;11.10;99.90
46029;DHT22;31763;48.180;7.904;2023-05-10T03:47:27;11.20;99.90
46029;DHT22;31763;48.180;7.904;2023-05-10T03:49:56;11.10;99.90
46029;DHT22;31763;48.180;7.904;2023-05-10T03:52:23;11.10;99.90
46029;DHT22;31763;48.180;7.904;2023-05-10T03:54:49;11.10;99.90
46029;DHT22;31763;48.180;7.904;2023-05-10T03:57:16;11.10;99.90
46029;DHT22;31763;48.180;7.904;2023-05-10T03:59:43;11.10;99.90
46029;DHT22;31763;48.180;7.904;2023-05-10T04:02:10;11.20;99.90
46029;DHT22;31763;48.180;7.904;2023-05-10T04:04:37;11.10;99.90
46029;DHT22;31763;48.180;7.904;2023-05-10T04:07:04;11.10;99.90
46029;DHT22;31763;48.180;7.904;2023-05-10T04:09:31;11.10;99.90
46029;DHT22;31763;48.180;7.904;2023-05-10T04:11:59;11.00;99.90
46029;DHT22;31763;48.180;7.904;2023-05-10T04:14:26;11.00;99.90
46029;DHT22;31763;48.180;7.904;2023-05-10T04:16:53;11.00;99.90
46029;DHT22;31763;48.180;7.904;2023-05-10T04:19:20;11.00;99.90
46029;DHT22;31763;48.180;7.904;2023-05-10T04:21:47;11.00;99.90
46029;DHT22;31763;48.180;7.904;2023-05-10T04:24:14;11.10;99.90
46029;DHT22;31763;48.180;7.904;2023-05-10T04:26:41;11.00;99.90
46029;DHT22;31763;48.180;7.904;2023-05-10T04:29:08;11.00;99.90
46029;DHT22;31763;48.180;7.904;2023-05-10T04:31:35;10.90;99.90
46029;DHT22;31763;48.180;7.904;2023-05-10T04:34:02;11.00;99.90
46029;DHT22;31763;48.180;7.904;2023-05-10T04:36:29;11.00;99.90
46029;DHT22;31763;48.180;7.904;2023-05-10T04:38:56;11.00;99.90
46029;DHT22;31763;48.180;7.904;2023-05-10T04:41:23;11.10;99.90
46029;DHT22;31763;48.180;7.904;2023-05-10T04:43:50;11.00;99.90
46029;DHT22;31763;48.180;7.904;2023-05-10T04:46:17;11.00;99.90
46029;DHT22;31763;48.180;7.904;2023-05-10T04:48:44;11.00;99.90
46029;DHT22;31763;48.180;7.904;2023-05-10T04:51:11;11.00;99.90
46029;DHT22;31763;48.180;7.904;2023-05-10T04:53:38;11.00;99.90
46029;DHT22;31763;48.180;7.904;2023-05-10T04:56:06;11.00;99.90
46029;DHT22;31763;48.180;7.904;2023-05-10T04:58:33;11.10;99.90
46029;DHT22;31763;48.180;7.904;2023-05-10T05:01:07;11.00;99.90
46029;DHT22;31763;48.180;7.904;2023-05-10T05:03:37;11.00;99.90
46029;DHT22;31763;48.180;7.904;2023-05-10T05:06:04;11.00;99.90
46029;DHT22;31763;48.180;7.904;2023-05-10T05:08:31;11.00;99.90
46029;DHT22;31763;48.180;7.904;2023-05-10T05:10:58;11.00;99.90
46029;DHT22;31763;48.180;7.904;2023-05-10T05:13:25;11.00;99.90
46029;DHT22;31763;48.180;7.904;2023-05-10T05:15:52;11.00;99.90
46029;DHT22;31763;48.180;7.904;2023-05-10T05:18:20;11.00;99.90
46029;DHT22;31763;48.180;7.904;2023-05-10T05:20:46;11.00;99.90
46029;DHT22;31763;48.180;7.904;2023-05-10T05:23:13;11.00;99.90
46029;DHT22;31763;48.180;7.904;2023-05-10T05:25:40;11.00;99.90
46029;DHT22;31763;48.180;7.904;2023-05-10T05:28:08;11.00;99.90
46029;DHT22;31763;48.180;7.904;2023-05-10T05:30:34;11.00;99.90
46029;DHT22;31763;48.180;7.904;2023-05-10T05:33:01;10.90;99.90
46029;DHT22;31763;48.180;7.904;2023-05-10T05:35:28;10.90;99.90
46029;DHT22;31763;48.180;7.904;2023-05-10T05:37:55;11.00;99.90
46029;DHT22;31763;48.180;7.904;2023-05-10T05:40:22;10.90;99.90
46029;DHT22;31763;48.180;7.904;2023-05-10T05:42:49;10.90;99.90
46029;DHT22;31763;48.180;7.904;2023-05-10T05:45:16;10.90;99.90
46029;DHT22;31763;48.180;7.904;2023-05-10T05:47:43;10.90;99.90
46029;DHT22;31763;48.180;7.904;2023-05-10T05:50:10;10.90;99.90
46029;DHT22;31763;48.180;7.904;2023-05-10T05:52:37;10.90;99.90
46029;DHT22;31763;48.180;7.904;2023-05-10T05:55:04;10.90;99.90
46029;DHT22;31763;48.180;7.904;2023-05-10T05:57:31;10.90;99.90
46029;DHT22;31763;48.180;7.904;2023-05-10T05:59:58;10.80;99.90
46029;DHT22;31763;48.180;7.904;2023-05-10T06:02:25;10.80;99.90
46029;DHT22;31763;48.180;7.904;2023-05-10T06:04:52;10.80;99.90
46029;DHT22;31763;48.180;7.904;2023-05-10T06:07:19;10.90;99.90
46029;DHT22;31763;48.180;7.904;2023-05-10T06:09:46;11.00;99.90
46029;DHT22;31763;48.180;7.904;2023-05-10T06:12:13;10.90;99.90
46029;DHT22;31763;48.180;7.904;2023-05-10T06:14:40;10.80;99.90
46029;DHT22;31763;48.180;7.904;2023-05-10T06:17:07;10.90;99.90
46029;DHT22;31763;48.180;7.904;2023-05-10T06:19:33;10.80;99.90
46029;DHT22;31763;48.180;7.904;2023-05-10T06:22:00;10.80;99.90
46029;DHT22;31763;48.180;7.904;2023-05-10T06:24:27;10.80;99.90
46029;DHT22;31763;48.180;7.904;2023-05-10T06:26:54;10.80;99.90
46029;DHT22;31763;48.180;7.904;2023-05-10T06:29:21;10.70;99.90
46029;DHT22;31763;48.180;7.904;2023-05-10T06:31:47;10.80;99.90
46029;DHT22;31763;48.180;7.904;2023-05-10T06:34:14;10.80;99.90
46029;DHT22;31763;48.180;7.904;2023-05-10T06:36:41;10.80;99.90
46029;DHT22;31763;48.180;7.904;2023-05-10T06:39:08;10.80;99.90
46029;DHT22;31763;48.180;7.904;2023-05-10T06:41:35;10.80;99.90
46029;DHT22;31763;48.180;7.904;2023-05-10T06:44:02;10.80;99.90
46029;DHT22;31763;48.180;7.904;2023-05-10T06:46:30;10.80;99.90
46029;DHT22;31763;48.180;7.904;2023-05-10T06:48:57;10.80;99.90
46029;DHT22;31763;48.180;7.904;2023-05-10T06:51:23;10.80;99.90
46029;DHT22;31763;48.180;7.904;2023-05-10T06:53:50;10.80;99.90
46029;DHT22;31763;48.180;7.904;2023-05-10T06:56:17;10.90;99.90
46029;DHT22;31763;48.180;7.904;2023-05-10T06:58:44;10.90;99.90
46029;DHT22;31763;48.180;7.904;2023-05-10T07:01:12;10.90;99.90
46029;DHT22;31763;48.180;7.904;2023-05-10T07:03:39;10.90;99.90
46029;DHT22;31763;48.180;7.904;2023-05-10T07:06:05;10.90;99.90
46029;DHT22;31763;48.180;7.904;2023-05-10T07:08:44;10.80;99.90
46029;DHT22;31763;48.180;7.904;2023-05-10T07:11:11;10.70;99.90
46029;DHT22;31763;48.180;7.904;2023-05-10T07:13:37;10.70;99.90
46029;DHT22;31763;48.180;7.904;2023-05-10T07:16:07;10.80;99.90
46029;DHT22;31763;48.180;7.904;2023-05-10T07:18:34;10.80;99.90
46029;DHT22;31763;48.180;7.904;2023-05-10T07:21:01;10.60;99.90
46029;DHT22;31763;48.180;7.904;2023-05-10T07:23:29;10.70;99.90
46029;DHT22;31763;48.180;7.904;2023-05-10T07:25:56;10.70;99.90
46029;DHT22;31763;48.180;7.904;2023-05-10T07:28:23;10.80;99.90
46029;DHT22;31763;48.180;7.904;2023-05-10T07:30:50;10.80;99.90
46029;DHT22;31763;48.180;7.904;2023-05-10T07:33:17;10.80;99.90
46029;DHT22;31763;48.180;7.904;2023-05-10T07:35:44;10.80;99.90
46029;DHT22;31763;48.180;7.904;2023-05-10T07:38:11;10.90;99.90
46029;DHT22;31763;48.180;7.904;2023-05-10T07:40:39;10.90;99.90
46029;DHT22;31763;48.180;7.904;2023-05-10T07:43:06;10.90;99.90
46029;DHT22;31763;48.180;7.904;2023-05-10T07:45:33;11.10;99.90
46029;DHT22;31763;48.180;7.904;2023-05-10T07:48:00;10.90;99.90
46029;DHT22;31763;48.180;7.904;2023-05-10T07:50:27;11.00;99.90
46029;DHT22;31763;48.180;7.904;2023-05-10T07:52:54;11.20;99.90
46029;DHT22;31763;48.180;7.904;2023-05-10T07:55:21;11.00;99.90
46029;DHT22;31763;48.180;7.904;2023-05-10T07:57:48;11.00;99.90
46029;DHT22;31763;48.180;7.904;2023-05-10T08:00:19;11.20;99.90
46029;DHT22;31763;48.180;7.904;2023-05-10T08:02:47;11.30;99.90
46029;DHT22;31763;48.180;7.904;2023-05-10T08:05:14;11.30;99.90
46029;DHT22;31763;48.180;7.904;2023-05-10T08:07:41;11.20;99.90
46029;DHT22;31763;48.180;7.904;2023-05-10T08:10:09;11.20;99.90
46029;DHT22;31763;48.180;7.904;2023-05-10T08:12:38;11.30;99.90
46029;DHT22;31763;48.180;7.904;2023-05-10T08:15:05;11.30;99.90
46029;DHT22;31763;48.180;7.904;2023-05-10T08:17:35;11.40;99.90
46029;DHT22;31763;48.180;7.904;2023-05-10T08:20:05;11.50;99.90
46029;DHT22;31763;48.180;7.904;2023-05-10T08:22:43;11.40;99.90
46029;DHT22;31763;48.180;7.904;2023-05-10T08:25:13;11.40;99.90
46029;DHT22;31763;48.180;7.904;2023-05-10T08:27:51;11.30;99.90
46029;DHT22;31763;48.180;7.904;2023-05-10T08:30:25;11.40;99.90
46029;DHT22;31763;48.180;7.904;2023-05-10T08:33:14;11.40;99.90
46029;DHT22;31763;48.180;7.904;2023-05-10T08:35:41;11.40;99.90
46029;DHT22;31763;48.180;7.904;2023-05-10T08:38:07;11.60;99.90
46029;DHT22;31763;48.180;7.904;2023-05-10T08:40:35;11.70;99.90
46029;DHT22;31763;48.180;7.904;2023-05-10T08:43:09;11.70;99.90
46029;DHT22;31763;48.180;7.904;2023-05-10T08:45:44;11.80;99.90
46029;DHT22;31763;48.180;7.904;2023-05-10T08:48:14;11.80;99.90
46029;DHT22;31763;48.180;7.904;2023-05-10T08:50:42;11.70;99.90
46029;DHT22;31763;48.180;7.904;2023-05-10T08:53:13;11.70;99.90
46029;DHT22;31763;48.180;7.904;2023-05-10T08:55:40;11.80;99.90
46029;DHT22;31763;48.180;7.904;2023-05-10T08:58:09;11.70;99.90
46029;DHT22;31763;48.180;7.904;2023-05-10T09:00:36;11.70;99.90
46029;DHT22;31763;48.180;7.904;2023-05-10T09:03:05;11.60;99.90
46029;DHT22;31763;48.180;7.904;2023-05-10T09:05:32;11.40;99.90
46029;DHT22;31763;48.180;7.904;2023-05-10T09:07:59;11.50;99.90
46029;DHT22;31763;48.180;7.904;2023-05-10T09:10:30;11.10;99.90
46029;DHT22;31763;48.180;7.904;2023-05-10T09:12:57;10.90;99.90
46029;DHT22;31763;48.180;7.904;2023-05-10T09:15:25;10.60;99.90
46029;DHT22;31763;48.180;7.904;2023-05-10T09:17:52;10.70;99.90
46029;DHT22;31763;48.180;7.904;2023-05-10T09:20:19;10.50;99.90
46029;DHT22;31763;48.180;7.904;2023-05-10T09:22:47;10.40;99.90
46029;DHT22;31763;48.180;7.904;2023-05-10T09:25:15;10.70;99.90
46029;DHT22;31763;48.180;7.904;2023-05-10T09:27:47;10.70;99.90
46029;DHT22;31763;48.180;7.904;2023-05-10T09:30:24;10.40;99.90
46029;DHT22;31763;48.180;7.904;2023-05-10T09:32:52;10.60;99.90
46029;DHT22;31763;48.180;7.904;2023-05-10T09:35:21;10.90;99.90
46029;DHT22;31763;48.180;7.904;2023-05-10T09:37:55;10.70;99.90
46029;DHT22;31763;48.180;7.904;2023-05-10T09:40:25;11.00;99.90
46029;DHT22;31763;48.180;7.904;2023-05-10T09:43:01;11.10;99.90
46029;DHT22;31763;48.180;7.904;2023-05-10T09:45:30;11.00;99.90
46029;DHT22;31763;48.180;7.904;2023-05-10T09:48:01;11.20;99.90
46029;DHT22;31763;48.180;7.904;2023-05-10T09:50:30;11.40;99.90
46029;DHT22;31763;48.180;7.904;2023-05-10T09:52:58;11.60;99.90
46029;DHT22;31763;48.180;7.904;2023-05-10T09:58:06;11.90;99.90
46029;DHT22;31763;48.180;7.904;2023-05-10T10:00:38;11.90;99.90
46029;DHT22;31763;48.180;7.904;2023-05-10T10:03:21;12.20;99.90
46029;DHT22;31763;48.180;7.904;2023-05-10T10:05:48;12.30;99.90
46029;DHT22;31763;48.180;7.904;2023-05-10T10:08:15;12.50;99.90
46029;DHT22;31763;48.180;7.904;2023-05-10T10:10:43;12.70;99.90
46029;DHT22;31763;48.180;7.904;2023-05-10T10:13:13;13.00;99.90
46029;DHT22;31763;48.180;7.904;2023-05-10T10:15:42;13.00;99.90
46029;DHT22;31763;48.180;7.904;2023-05-10T10:18:14;13.40;99.90
46029;DHT22;31763;48.180;7.904;2023-05-10T10:20:42;13.30;99.90
46029;DHT22;31763;48.180;7.904;2023-05-10T10:23:09;13.60;99.90
46029;DHT22;31763;48.180;7.904;2023-05-10T10:25:36;13.60;99.90
46029;DHT22;31763;48.180;7.904;2023-05-10T10:28:31;13.80;99.90
46029;DHT22;31763;48.180;7.904;2023-05-10T10:31:32;13.70;99.90
46029;DHT22;31763;48.180;7.904;2023-05-10T10:34:10;13.60;99.90
46029;DHT22;31763;48.180;7.904;2023-05-10T10:36:45;13.30;99.90
46029;DHT22;31763;48.180;7.904;2023-05-10T10:39:13;13.40;99.90
46029;DHT22;31763;48.180;7.904;2023-05-10T10:41:52;13.20;99.90
46029;DHT22;31763;48.180;7.904;2023-05-10T10:44:35;13.10;99.90
46029;DHT22;31763;48.180;7.904;2023-05-10T10:49:51;13.10;99.90
46029;DHT22;31763;48.180;7.904;2023-05-10T10:52:30;13.00;99.90
46029;DHT22;31763;48.180;7.904;2023-05-10T10:55:12;12.70;99.90
46029;DHT22;31763;48.180;7.904;2023-05-10T10:57:44;12.90;99.90
46029;DHT22;31763;48.180;7.904;2023-05-10T11:02:48;12.90;99.90
46029;DHT22;31763;48.180;7.904;2023-05-10T11:05:45;12.50;99.90
46029;DHT22;31763;48.180;7.904;2023-05-10T11:13:32;12.50;99.90
46029;DHT22;31763;48.180;7.904;2023-05-10T11:16:20;12.60;99.90
46029;DHT22;31763;48.180;7.904;2023-05-10T11:19:04;12.90;99.90
46029;DHT22;31763;48.180;7.904;2023-05-10T11:21:34;13.10;99.90
46029;DHT22;31763;48.180;7.904;2023-05-10T11:24:17;13.00;99.90
46029;DHT22;31763;48.180;7.904;2023-05-10T11:26:45;12.70;99.90
46029;DHT22;31763;48.180;7.904;2023-05-10T11:29:13;12.80;99.90
46029;DHT22;31763;48.180;7.904;2023-05-10T11:31:47;12.80;99.90
46029;DHT22;31763;48.180;7.904;2023-05-10T11:34:28;12.60;99.90
46029;DHT22;31763;48.180;7.904;2023-05-10T11:36:57;12.80;99.90
46029;DHT22;31763;48.180;7.904;2023-05-10T11:39:31;12.80;99.90
46029;DHT22;31763;48.180;7.904;2023-05-10T11:41:58;12.70;99.90
46029;DHT22;31763;48.180;7.904;2023-05-10T11:44:30;12.60;99.90
46029;DHT22;31763;48.180;7.904;2023-05-10T11:47:01;12.70;99.90
46029;DHT22;31763;48.180;7.904;2023-05-10T11:49:28;12.50;99.90
46029;DHT22;31763;48.180;7.904;2023-05-10T11:52:08;12.50;99.90
46029;DHT22;31763;48.180;7.904;2023-05-10T11:54:34;12.40;99.90
46029;DHT22;31763;48.180;7.904;2023-05-10T11:57:02;12.50;99.90
46029;DHT22;31763;48.180;7.904;2023-05-10T11:59:29;12.50;99.90
46029;DHT22;31763;48.180;7.904;2023-05-10T12:01:56;12.50;99.90
46029;DHT22;31763;48.180;7.904;2023-05-10T12:04:23;12.60;99.90
46029;DHT22;31763;48.180;7.904;2023-05-10T12:06:50;12.70;99.90
46029;DHT22;31763;48.180;7.904;2023-05-10T12:09:17;13.10;99.90
46029;DHT22;31763;48.180;7.904;2023-05-10T12:11:57;13.10;99.90
46029;DHT22;31763;48.180;7.904;2023-05-10T12:14:24;13.20;99.90
46029;DHT22;31763;48.180;7.904;2023-05-10T12:16:51;13.20;99.90
46029;DHT22;31763;48.180;7.904;2023-05-10T12:19:20;13.20;99.90
46029;DHT22;31763;48.180;7.904;2023-05-10T12:21:47;13.30;99.90
46029;DHT22;31763;48.180;7.904;2023-05-10T12:24:15;13.40;99.90
46029;DHT22;31763;48.180;7.904;2023-05-10T12:26:45;13.30;99.90
46029;DHT22;31763;48.180;7.904;2023-05-10T12:29:19;13.40;99.90
46029;DHT22;31763;48.180;7.904;2023-05-10T12:31:54;13.30;99.90
46029;DHT22;31763;48.180;7.904;2023-05-10T12:34:33;13.40;99.90
46029;DHT22;31763;48.180;7.904;2023-05-10T12:37:02;13.30;99.90
46029;DHT22;31763;48.180;7.904;2023-05-10T12:39:43;13.40;99.90
46029;DHT22;31763;48.180;7.904;2023-05-10T12:42:11;13.10;99.90
46029;DHT22;31763;48.180;7.904;2023-05-10T12:44:38;13.10;99.90
46029;DHT22;31763;48.180;7.904;2023-05-10T12:47:06;13.10;99.90
46029;DHT22;31763;48.180;7.904;2023-05-10T12:49:33;13.00;99.90
46029;DHT22;31763;48.180;7.904;2023-05-10T12:52:00;13.00;99.90
46029;DHT22;31763;48.180;7.904;2023-05-10T12:54:27;12.90;99.90
46029;DHT22;31763;48.180;7.904;2023-05-10T12:56:54;13.00;99.90
46029;DHT22;31763;48.180;7.904;2023-05-10T12:59:21;13.50;99.90
46029;DHT22;31763;48.180;7.904;2023-05-10T13:01:49;14.20;99.90
46029;DHT22;31763;48.180;7.904;2023-05-10T13:04:16;14.80;99.90
46029;DHT22;31763;48.180;7.904;2023-05-10T13:06:43;14.70;99.90
46029;DHT22;31763;48.180;7.904;2023-05-10T13:09:10;14.40;99.90
46029;DHT22;31763;48.180;7.904;2023-05-10T13:11:37;14.60;99.90
46029;DHT22;31763;48.180;7.904;2023-05-10T13:14:03;14.50;99.90
46029;DHT22;31763;48.180;7.904;2023-05-10T13:16:31;14.50;99.90
46029;DHT22;31763;48.180;7.904;2023-05-10T13:18:58;14.60;99.90
46029;DHT22;31763;48.180;7.904;2023-05-10T13:21:25;15.20;99.90
46029;DHT22;31763;48.180;7.904;2023-05-10T13:23:52;15.10;99.90
46029;DHT22;31763;48.180;7.904;2023-05-10T13:26:19;15.00;99.90
46029;DHT22;31763;48.180;7.904;2023-05-10T13:28:46;14.40;99.90
46029;DHT22;31763;48.180;7.904;2023-05-10T13:31:15;13.60;99.90
46029;DHT22;31763;48.180;7.904;2023-05-10T13:33:42;12.80;99.90
46029;DHT22;31763;48.180;7.904;2023-05-10T13:36:08;12.40;99.90
46029;DHT22;31763;48.180;7.904;2023-05-10T13:38:35;12.20;99.90
46029;DHT22;31763;48.180;7.904;2023-05-10T13:41:03;12.20;99.90
46029;DHT22;31763;48.180;7.904;2023-05-10T13:43:30;12.10;99.90
46029;DHT22;31763;48.180;7.904;2023-05-10T13:45:56;12.10;99.90
46029;DHT22;31763;48.180;7.904;2023-05-10T13:48:23;12.10;99.90
46029;DHT22;31763;48.180;7.904;2023-05-10T13:50:50;12.10;99.90
46029;DHT22;31763;48.180;7.904;2023-05-10T13:53:17;11.90;99.90
46029;DHT22;31763;48.180;7.904;2023-05-10T13:55:44;11.80;99.90
46029;DHT22;31763;48.180;7.904;2023-05-10T13:58:11;11.90;99.90
46029;DHT22;31763;48.180;7.904;2023-05-10T14:00:38;11.70;99.90
46029;DHT22;31763;48.180;7.904;2023-05-10T14:03:04;11.90;99.90
46029;DHT22;31763;48.180;7.904;2023-05-10T14:05:32;11.80;99.90
46029;DHT22;31763;48.180;7.904;2023-05-10T14:07:59;11.90;99.90
46029;DHT22;31763;48.180;7.904;2023-05-10T14:10:26;11.90;99.90
46029;DHT22;31763;48.180;7.904;2023-05-10T14:12:53;12.30;99.90
46029;DHT22;31763;48.180;7.904;2023-05-10T14:15:20;12.70;99.90
46029;DHT22;31763;48.180;7.904;2023-05-10T14:17:46;13.10;99.90
46029;DHT22;31763;48.180;7.904;2023-05-10T14:20:14;13.50;99.90
46029;DHT22;31763;48.180;7.904;2023-05-10T14:22:41;13.70;99.90
46029;DHT22;31763;48.180;7.904;2023-05-10T14:25:08;13.70;99.90
46029;DHT22;31763;48.180;7.904;2023-05-10T14:27:35;13.80;99.90
46029;DHT22;31763;48.180;7.904;2023-05-10T14:30:02;13.80;99.90
46029;DHT22;31763;48.180;7.904;2023-05-10T14:32:28;13.90;99.90
46029;DHT22;31763;48.180;7.904;2023-05-10T14:34:55;13.50;99.90
46029;DHT22;31763;48.180;7.904;2023-05-10T14:37:22;13.40;99.90
46029;DHT22;31763;48.180;7.904;2023-05-10T14:39:49;13.70;99.90
46029;DHT22;31763;48.180;7.904;2023-05-10T14:42:16;13.80;99.90
46029;DHT22;31763;48.180;7.904;2023-05-10T14:44:43;13.80;99.90
46029;DHT22;31763;48.180;7.904;2023-05-10T14:47:10;14.10;99.90
46029;DHT22;31763;48.180;7.904;2023-05-10T14:49:37;14.20;99.90
46029;DHT22;31763;48.180;7.904;2023-05-10T14:52:04;14.10;99.90
46029;DHT22;31763;48.180;7.904;2023-05-10T14:54:31;13.80;99.90
46029;DHT22;31763;48.180;7.904;2023-05-10T14:56:59;13.50;99.90
46029;DHT22;31763;48.180;7.904;2023-05-10T14:59:27;13.40;99.90
46029;DHT22;31763;48.180;7.904;2023-05-10T15:01:54;13.40;99.90
46029;DHT22;31763;48.180;7.904;2023-05-10T15:04:21;13.30;99.90
46029;DHT22;31763;48.180;7.904;2023-05-10T15:06:49;13.40;99.90
46029;DHT22;31763;48.180;7.904;2023-05-10T15:09:16;13.60;99.90
46029;DHT22;31763;48.180;7.904;2023-05-10T15:11:43;14.00;99.90
46029;DHT22;31763;48.180;7.904;2023-05-10T15:14:10;14.30;99.90
46029;DHT22;31763;48.180;7.904;2023-05-10T15:16:37;14.50;99.90
46029;DHT22;31763;48.180;7.904;2023-05-10T15:19:04;14.30;99.90
46029;DHT22;31763;48.180;7.904;2023-05-10T15:21:31;13.80;99.90
46029;DHT22;31763;48.180;7.904;2023-05-10T15:24:05;13.40;99.90
46029;DHT22;31763;48.180;7.904;2023-05-10T15:26:32;13.20;99.90
46029;DHT22;31763;48.180;7.904;2023-05-10T15:28:59;13.10;99.90
46029;DHT22;31763;48.180;7.904;2023-05-10T15:31:25;13.00;99.90
46029;DHT22;31763;48.180;7.904;2023-05-10T15:33:59;12.90;99.90
46029;DHT22;31763;48.180;7.904;2023-05-10T15:36:26;11.90;99.90
46029;DHT22;31763;48.180;7.904;2023-05-10T15:38:56;11.10;99.90
46029;DHT22;31763;48.180;7.904;2023-05-10T15:41:23;10.90;99.90
46029;DHT22;31763;48.180;7.904;2023-05-10T15:43:51;10.70;99.90
46029;DHT22;31763;48.180;7.904;2023-05-10T15:46:17;10.80;99.90
46029;DHT22;31763;48.180;7.904;2023-05-10T15:48:44;11.20;99.90
46029;DHT22;31763;48.180;7.904;2023-05-10T15:51:11;11.30;99.90
46029;DHT22;31763;48.180;7.904;2023-05-10T15:53:38;11.50;99.90
46029;DHT22;31763;48.180;7.904;2023-05-10T15:56:18;11.50;99.90
46029;DHT22;31763;48.180;7.904;2023-05-10T15:58:45;11.60;99.90
46029;DHT22;31763;48.180;7.904;2023-05-10T16:01:12;11.80;99.90
46029;DHT22;31763;48.180;7.904;2023-05-10T16:03:38;11.70;99.90
46029;DHT22;31763;48.180;7.904;2023-05-10T16:06:06;11.80;99.90
46029;DHT22;31763;48.180;7.904;2023-05-10T16:08:32;11.80;99.90